Oyster Bayou — WZN2179 — position and weather

sailwx.info

Track history (hours):
 
Tides and Currents Weather Stations Pressure Air Temp Water Temp Dewpoint Dewpoint Depression Visibility Wind Speed Wind Dir Waves Ship Positions

Oyster Bayou

Owner: OMEGA PROTEIN INC., Moss Point, MS. More information available from US FCC via Universal Licensing System and Coast Guard Vessel Documentation Center.

Last reported at 2017-Oct-18 05:00 UTC. Time now 2017-Oct-18 05:27 UTC.
Position N 29°49' W 092°08'.

Length 49 m; draft 3.5 m.

Type: Fishing. MMSI: 367088130.

Date/timePositionNaut miles runAvg speedWind from/ knotsBaromVisibWave heightAir tempDewpointWater temp
2017-Oct-18 05:00N 29°49' W 092°08'0 0.0
2017-Oct-18 04:30N 29°49' W 092°08'0 0.0
2017-Oct-18 04:00N 29°49' W 092°08'0 0.0
2017-Oct-18 03:30N 29°49' W 092°08'0 0.0
2017-Oct-18 03:00N 29°49' W 092°08'0 0.0
2017-Oct-18 02:30N 29°49' W 092°08'0 0.0
2017-Oct-18 02:00N 29°49' W 092°08'0 0.0
2017-Oct-18 01:30N 29°49' W 092°08'0 0.0
2017-Oct-18 01:00N 29°49' W 092°08'0 0.0
2017-Oct-18 00:30N 29°49' W 092°08'0 0.0
2017-Oct-17 23:59N 29°49' W 092°08'0 0.0
2017-Oct-17 23:26N 29°49' W 092°08'0 0.0
2017-Oct-17 22:59N 29°49' W 092°08'0 0.0
2017-Oct-17 22:29N 29°49' W 092°08'0 0.0
2017-Oct-17 21:59N 29°49' W 092°08'0 0.0
2017-Oct-17 21:29N 29°49' W 092°08'0 0.0
2017-Oct-17 20:59N 29°49' W 092°08'0 0.0
2017-Oct-17 20:29N 29°49' W 092°08'0 0.0
2017-Oct-17 19:59N 29°49' W 092°08'0 0.0
2017-Oct-17 19:29N 29°49' W 092°08'0 0.0
2017-Oct-17 18:56N 29°49' W 092°08'0 0.0
2017-Oct-17 18:29N 29°49' W 092°08'0 0.0
2017-Oct-17 17:56N 29°49' W 092°08'0 0.0
2017-Oct-17 17:26N 29°49' W 092°08'0 0.0
2017-Oct-17 16:50N 29°49' W 092°08'0 0.0
2017-Oct-17 16:29N 29°49' W 092°08'0 0.0
2017-Oct-17 15:59N 29°49' W 092°08'0 0.0
2017-Oct-17 15:08N 29°49' W 092°08'0 0.0
2017-Oct-17 14:59N 29°49' W 092°08'0 0.0
2017-Oct-17 14:29N 29°49' W 092°08'0 0.0
2017-Oct-17 13:59N 29°49' W 092°08'0 0.0
2017-Oct-17 13:29N 29°49' W 092°08'0 0.0
2017-Oct-17 12:59N 29°49' W 092°08'0 0.0
2017-Oct-17 12:23N 29°49' W 092°08'0 0.0
2017-Oct-17 11:59N 29°49' W 092°08'0 0.0
2017-Oct-17 11:29N 29°49' W 092°08'0 0.0
2017-Oct-17 10:59N 29°49' W 092°08'0 0.0
2017-Oct-17 10:24N 29°49' W 092°08'0 0.0
2017-Oct-17 10:00N 29°49' W 092°08'0 0.0
2017-Oct-17 09:30N 29°49' W 092°08'0 0.0
2017-Oct-17 09:00N 29°49' W 092°08'0 0.0
2017-Oct-17 08:30N 29°49' W 092°08'0 0.0
2017-Oct-17 08:00N 29°49' W 092°08'0 0.0
2017-Oct-17 07:24N 29°49' W 092°08'0 0.0
2017-Oct-17 07:00N 29°49' W 092°08'0 0.0
2017-Oct-17 06:27N 29°49' W 092°08'0 0.0
2017-Oct-17 06:00N 29°49' W 092°08'0 0.0
2017-Oct-17 05:30N 29°49' W 092°08'0 0.0
2017-Oct-17 05:00N 29°49' W 092°08'0 0.0
2017-Oct-17 04:30N 29°49' W 092°08'0 0.0
2017-Oct-17 04:00N 29°49' W 092°08'0 0.0
2017-Oct-17 03:12N 29°49' W 092°08'0 0.0
2017-Oct-17 02:54N 29°49' W 092°08'0 0.0
2017-Oct-17 02:24N 29°49' W 092°08'0 0.0
2017-Oct-17 02:00N 29°49' W 092°08'0 0.0
2017-Oct-17 01:30N 29°49' W 092°08'0 0.0
2017-Oct-17 00:51N 29°49' W 092°08'0 0.0
2017-Oct-17 00:30N 29°49' W 092°08'0 0.0
2017-Oct-16 23:54N 29°49' W 092°08'0 0.0
2017-Oct-16 22:42N 29°49' W 092°08'0 0.0
2017-Oct-16 22:06N 29°49' W 092°08'0 0.0
2017-Oct-16 20:21N 29°49' W 092°08'0 0.0
2017-Oct-16 20:00N 29°49' W 092°08'1 1.9
2017-Oct-16 19:30N 29°48' W 092°08'3 5.8
2017-Oct-16 19:00N 29°46' W 092°10'5 9.6
2017-Oct-16 18:30N 29°43' W 092°15'5 8.9
2017-Oct-16 17:57N 29°38' W 092°16'2 0.1
2017-Oct-16 01:03N 29°37' W 092°17'0 9.2
2017-Oct-16 01:00N 29°37' W 092°17'4 8.9
2017-Oct-16 00:30N 29°41' W 092°15'5 9.4
2017-Oct-16 00:00N 29°45' W 092°12'4 7.6
2017-Oct-15 23:30N 29°47' W 092°09'2 4.0
2017-Oct-15 23:00N 29°49' W 092°08'0 0.0
2017-Oct-15 22:30N 29°49' W 092°08'0 0.0
2017-Oct-15 22:00N 29°49' W 092°08'0 0.0
2017-Oct-15 21:30N 29°49' W 092°08'0 0.0
2017-Oct-15 21:00N 29°49' W 092°08'0 0.0
2017-Oct-15 20:30N 29°49' W 092°08'0 0.0
2017-Oct-15 20:00N 29°49' W 092°08'0 0.0
2017-Oct-15 19:30N 29°49' W 092°08'0 0.0
2017-Oct-15 19:00N 29°49' W 092°08'0 0.0
2017-Oct-15 18:30N 29°49' W 092°08'0 0.0
2017-Oct-15 18:00N 29°49' W 092°08'0 0.0
2017-Oct-15 17:30N 29°49' W 092°08'0 0.0
2017-Oct-15 17:00N 29°49' W 092°08'0 0.0
2017-Oct-15 16:28N 29°49' W 092°08'0 0.0
2017-Oct-15 16:00N 29°49' W 092°08'0 0.0
2017-Oct-15 15:30N 29°49' W 092°08'0 0.0
2017-Oct-15 15:00N 29°49' W 092°08'0 0.0
2017-Oct-15 14:00N 29°49' W 092°08'0 0.0
2017-Oct-15 13:30N 29°49' W 092°08'0 0.0
2017-Oct-15 13:00N 29°49' W 092°08'0 0.0
2017-Oct-15 12:30N 29°49' W 092°08'0 0.0
2017-Oct-15 12:00N 29°49' W 092°08'0 0.0
2017-Oct-15 11:30N 29°49' W 092°08'0 0.0
2017-Oct-15 11:00N 29°49' W 092°08'0 0.0
2017-Oct-15 10:30N 29°49' W 092°08'0 0.0
2017-Oct-15 10:00N 29°49' W 092°08'0 0.0
2017-Oct-15 09:30N 29°49' W 092°08'0 0.0
2017-Oct-15 09:00N 29°49' W 092°08'0 0.0
2017-Oct-15 08:30N 29°49' W 092°08'0 0.0
2017-Oct-15 08:00N 29°49' W 092°08'0 0.0
2017-Oct-15 07:30N 29°49' W 092°08'0 0.0
2017-Oct-15 07:00N 29°49' W 092°08'0 0.0
2017-Oct-15 06:30N 29°49' W 092°08'0 0.0
2017-Oct-15 06:00N 29°49' W 092°08'0 0.0
2017-Oct-15 05:30N 29°49' W 092°08'0 0.0
2017-Oct-15 05:00N 29°49' W 092°08'0 0.0
2017-Oct-15 04:29N 29°49' W 092°08'0 0.0
2017-Oct-15 03:29N 29°49' W 092°08'0 0.0
2017-Oct-15 02:55N 29°49' W 092°08'0 0.0
2017-Oct-15 02:29N 29°49' W 092°08'0 0.0
2017-Oct-15 02:00N 29°49' W 092°08'0 0.0
2017-Oct-15 01:30N 29°49' W 092°08'0 0.0
2017-Oct-15 01:00N 29°49' W 092°08'0 0.0
2017-Oct-15 00:30N 29°49' W 092°08'0 0.0
2017-Oct-15 00:00N 29°49' W 092°08'0 0.0
2017-Oct-14 23:30N 29°49' W 092°08'0 0.0
2017-Oct-14 22:59N 29°49' W 092°08'0 0.0
2017-Oct-14 22:30N 29°49' W 092°08'0 0.0
2017-Oct-14 22:00N 29°49' W 092°08'0 0.0
2017-Oct-14 21:30N 29°49' W 092°08'0 0.0
2017-Oct-14 20:58N 29°49' W 092°08'0 0.0
2017-Oct-14 20:29N 29°49' W 092°08'0 0.0
2017-Oct-14 19:54N 29°49' W 092°08'0 0.0
2017-Oct-14 19:30N 29°49' W 092°08'0 0.0
2017-Oct-14 18:59N 29°49' W 092°08'0 0.0
2017-Oct-14 18:30N 29°49' W 092°08'0 0.0
2017-Oct-14 18:00N 29°49' W 092°08'0 0.0
2017-Oct-14 17:30N 29°49' W 092°08'0 0.0
2017-Oct-14 16:42N 29°49' W 092°08'0 0.0
2017-Oct-14 16:16N 29°49' W 092°08'0 0.0
2017-Oct-14 16:00N 29°49' W 092°08'0 0.0
2017-Oct-14 15:30N 29°49' W 092°08'0 0.0
2017-Oct-14 15:00N 29°49' W 092°08'0 0.0
2017-Oct-14 14:30N 29°49' W 092°08'0 0.0
2017-Oct-14 13:58N 29°49' W 092°08'0 0.2
2017-Oct-14 13:30N 29°49' W 092°08'0 0.0
2017-Oct-14 13:00N 29°49' W 092°08'0 0.0
2017-Oct-14 12:30N 29°49' W 092°08'0 0.0
2017-Oct-14 12:00N 29°49' W 092°08'0 0.0
2017-Oct-14 11:30N 29°49' W 092°08'0 0.0
2017-Oct-14 11:00N 29°49' W 092°08'0 0.0
2017-Oct-14 10:30N 29°49' W 092°08'0 0.0
2017-Oct-14 10:00N 29°49' W 092°08'0 0.0
2017-Oct-14 09:30N 29°49' W 092°08'0 0.0
2017-Oct-14 09:00N 29°49' W 092°08'0 0.0
2017-Oct-14 08:30N 29°49' W 092°08'0 0.0
2017-Oct-14 08:00N 29°49' W 092°08'0 0.0
2017-Oct-14 07:30N 29°49' W 092°08'0 0.0
2017-Oct-14 07:00N 29°49' W 092°08'0 0.0
2017-Oct-14 06:30N 29°49' W 092°08'0 0.0
2017-Oct-14 06:00N 29°49' W 092°08'0 0.0
2017-Oct-14 05:30N 29°49' W 092°08'0 0.0
2017-Oct-14 05:00N 29°49' W 092°08'0 0.0
2017-Oct-14 04:30N 29°49' W 092°08'0 0.0
2017-Oct-14 04:00N 29°49' W 092°08'0 0.0
2017-Oct-14 03:30N 29°49' W 092°08'0 0.0
2017-Oct-14 03:00N 29°49' W 092°08'0 0.0
2017-Oct-14 02:30N 29°49' W 092°08'0 0.0
2017-Oct-14 02:00N 29°49' W 092°08'0 0.0
2017-Oct-14 01:30N 29°49' W 092°08'0 0.0
2017-Oct-14 01:00N 29°49' W 092°08'0 0.0
2017-Oct-14 00:30N 29°49' W 092°08'0 0.0
2017-Oct-14 00:00N 29°49' W 092°08'0 0.0
2017-Oct-13 23:30N 29°49' W 092°08'2 3.5
2017-Oct-13 23:00N 29°48' W 092°08'3 6.6
2017-Oct-13 22:30N 29°46' W 092°12'4 8.7
2017-Oct-13 22:00N 29°42' W 092°15'10 0.3
2017-Oct-12 09:33N 29°33' W 092°18'1 4.6
2017-Oct-12 09:21N 29°34' W 092°18'3 9.5
2017-Oct-12 09:00N 29°37' W 092°17'5 9.9
2017-Oct-12 08:30N 29°42' W 092°15'5 9.8
2017-Oct-12 08:01N 29°46' W 092°12'3 6.6
2017-Oct-12 07:30N 29°48' W 092°08'2 3.3
2017-Oct-12 07:00N 29°49' W 092°08'0 0.0
2017-Oct-12 06:31N 29°49' W 092°08'0 0.0
2017-Oct-12 06:00N 29°49' W 092°08'0 0.0
2017-Oct-12 05:30N 29°49' W 092°08'0 0.0
2017-Oct-12 05:01N 29°49' W 092°08'0 0.0
2017-Oct-12 04:31N 29°49' W 092°08'0 0.0
2017-Oct-12 04:01N 29°49' W 092°08'2 4.7
2017-Oct-12 03:30N 29°47' W 092°09'4 8.4
2017-Oct-12 03:01N 29°45' W 092°13'4 8.7
2017-Oct-12 02:30N 29°41' W 092°15'4 8.7
2017-Oct-12 02:01N 29°37' W 092°17'2 0.0
2017-Oct-10 01:09N 29°39' W 092°16'1 9.0
2017-Oct-10 01:00N 29°40' W 092°15'4 7.7
2017-Oct-10 00:30N 29°44' W 092°15'5 9.0
2017-Oct-10 00:00N 29°46' W 092°10'2 4.6
2017-Oct-09 23:30N 29°48' W 092°08'2 3.0
2017-Oct-09 23:01N 29°49' W 092°08'0 0.0
2017-Oct-09 22:30N 29°49' W 092°08'0 0.0
2017-Oct-09 22:00N 29°49' W 092°08'0 0.0
2017-Oct-09 21:30N 29°49' W 092°08'0 0.0
2017-Oct-09 21:00N 29°49' W 092°08'0 0.0
2017-Oct-09 20:30N 29°49' W 092°08'0 0.0
2017-Oct-09 19:59N 29°49' W 092°08'0 0.0
2017-Oct-09 19:29N 29°49' W 092°08'0 0.0
2017-Oct-09 18:59N 29°49' W 092°08'0 0.0
2017-Oct-09 18:29N 29°49' W 092°08'0 0.0
2017-Oct-09 17:59N 29°49' W 092°08'0 0.0
2017-Oct-09 17:26N 29°49' W 092°08'0 0.0
2017-Oct-09 16:59N 29°49' W 092°08'0 0.0
2017-Oct-09 16:29N 29°49' W 092°08'0 0.0
2017-Oct-09 15:59N 29°49' W 092°08'0 0.0
2017-Oct-09 15:29N 29°49' W 092°08'0 0.0
2017-Oct-09 14:56N 29°49' W 092°08'0 0.0
2017-Oct-09 14:29N 29°49' W 092°08'0 0.0
2017-Oct-09 13:59N 29°49' W 092°08'0 0.0
2017-Oct-09 13:29N 29°49' W 092°08'0 0.0
2017-Oct-09 12:59N 29°49' W 092°08'0 0.0
2017-Oct-09 12:29N 29°49' W 092°08'0 0.0
2017-Oct-09 11:59N 29°49' W 092°08'0 0.0
2017-Oct-09 11:29N 29°49' W 092°08'0 0.0
2017-Oct-09 10:59N 29°49' W 092°08'0 0.0
2017-Oct-09 10:29N 29°49' W 092°08'0 0.0
2017-Oct-09 09:59N 29°49' W 092°08'0 0.0
2017-Oct-09 09:29N 29°49' W 092°08'0 0.0
2017-Oct-09 08:59N 29°49' W 092°08'0 0.0
2017-Oct-09 08:29N 29°49' W 092°08'0 0.0
2017-Oct-09 07:59N 29°49' W 092°08'0 0.0
2017-Oct-09 07:29N 29°49' W 092°08'0 0.0
2017-Oct-09 06:59N 29°49' W 092°08'0 0.0
2017-Oct-09 06:29N 29°49' W 092°08'0 0.0
2017-Oct-09 05:59N 29°49' W 092°08'0 0.0
2017-Oct-09 05:29N 29°49' W 092°08'0 0.0
2017-Oct-09 04:59N 29°49' W 092°08'0 0.0
2017-Oct-09 04:29N 29°49' W 092°08'0 0.0
2017-Oct-09 03:59N 29°49' W 092°08'0 0.0
2017-Oct-09 03:29N 29°49' W 092°08'0 0.0
2017-Oct-09 02:59N 29°49' W 092°08'0 0.0
2017-Oct-09 02:29N 29°49' W 092°08'0 0.0
2017-Oct-09 01:59N 29°49' W 092°08'0 0.0
2017-Oct-09 01:30N 29°49' W 092°08'0 0.0
2017-Oct-09 01:00N 29°49' W 092°08'0 0.0
2017-Oct-09 00:30N 29°49' W 092°08'0 0.0
2017-Oct-09 00:00N 29°49' W 092°08'0 0.0
2017-Oct-08 23:30N 29°49' W 092°08'0 0.0
2017-Oct-08 22:57N 29°49' W 092°08'0 0.0
2017-Oct-08 22:30N 29°49' W 092°08'0 0.0
2017-Oct-08 22:00N 29°49' W 092°08'0 0.0
2017-Oct-08 21:30N 29°49' W 092°08'0 0.0
2017-Oct-08 21:00N 29°49' W 092°08'0 0.0
2017-Oct-08 20:30N 29°49' W 092°08'0 0.0
2017-Oct-08 20:00N 29°49' W 092°08'0 0.0
2017-Oct-08 19:30N 29°49' W 092°08'0 0.0
2017-Oct-08 19:00N 29°49' W 092°08'0 0.0
2017-Oct-08 18:30N 29°49' W 092°08'0 0.0
2017-Oct-08 18:00N 29°49' W 092°08'0 0.0
2017-Oct-08 17:30N 29°49' W 092°08'0 0.0
2017-Oct-08 17:00N 29°49' W 092°08'0 0.0
2017-Oct-08 16:30N 29°49' W 092°08'0 0.0
2017-Oct-08 16:00N 29°49' W 092°08'0 0.0
2017-Oct-08 15:30N 29°49' W 092°08'0 0.0
2017-Oct-08 15:00N 29°49' W 092°08'0 0.0
2017-Oct-08 14:30N 29°49' W 092°08'0 0.0
2017-Oct-08 14:00N 29°49' W 092°08'0 0.0
2017-Oct-08 13:30N 29°49' W 092°08'0 0.0
2017-Oct-08 13:00N 29°49' W 092°08'0 0.0
2017-Oct-08 12:30N 29°49' W 092°08'0 0.0
2017-Oct-08 12:00N 29°49' W 092°08'0 0.0
2017-Oct-08 11:30N 29°49' W 092°08'0 0.0
2017-Oct-08 11:00N 29°49' W 092°08'0 0.0
2017-Oct-08 10:30N 29°49' W 092°08'0 0.0
2017-Oct-08 10:00N 29°49' W 092°08'0 0.0
2017-Oct-08 09:30N 29°49' W 092°08'0 0.0
2017-Oct-08 09:00N 29°49' W 092°08'0 0.0
2017-Oct-08 08:30N 29°49' W 092°08'0 0.0
2017-Oct-08 08:00N 29°49' W 092°08'0 0.0
2017-Oct-08 07:30N 29°49' W 092°08'0 0.0
2017-Oct-08 07:00N 29°49' W 092°08'0 0.0
2017-Oct-08 06:30N 29°49' W 092°08'0 0.0
2017-Oct-08 06:00N 29°49' W 092°08'0 0.0
2017-Oct-08 05:30N 29°49' W 092°08'  
Track history (hours):
 
Tides and Currents Weather Stations Pressure Air Temp Water Temp Dewpoint Dewpoint Depression Visibility Wind Speed Wind Dir Waves Ship Positions

Oyster Bayou

Owner: OMEGA PROTEIN INC., Moss Point, MS. More information available from US FCC via Universal Licensing System and Coast Guard Vessel Documentation Center.

Last reported at 2017-Oct-18 05:00 UTC. Time now 2017-Oct-18 05:27 UTC.
Position N 29°49' W 092°08'.

Length 49 m; draft 3.5 m.

Type: Fishing. MMSI: 367088130.

Date/timePositionNaut miles runAvg speedWind from/ knotsBaromVisibWave heightAir tempDewpointWater temp
2017-Oct-18 05:00N 29°49' W 092°08'0 0.0
2017-Oct-18 04:30N 29°49' W 092°08'0 0.0
2017-Oct-18 04:00N 29°49' W 092°08'0 0.0
2017-Oct-18 03:30N 29°49' W 092°08'0 0.0
2017-Oct-18 03:00N 29°49' W 092°08'0 0.0
2017-Oct-18 02:30N 29°49' W 092°08'0 0.0
2017-Oct-18 02:00N 29°49' W 092°08'0 0.0
2017-Oct-18 01:30N 29°49' W 092°08'0 0.0
2017-Oct-18 01:00N 29°49' W 092°08'0 0.0
2017-Oct-18 00:30N 29°49' W 092°08'0 0.0
2017-Oct-17 23:59N 29°49' W 092°08'0 0.0
2017-Oct-17 23:26N 29°49' W 092°08'0 0.0
2017-Oct-17 22:59N 29°49' W 092°08'0 0.0
2017-Oct-17 22:29N 29°49' W 092°08'0 0.0
2017-Oct-17 21:59N 29°49' W 092°08'0 0.0
2017-Oct-17 21:29N 29°49' W 092°08'0 0.0
2017-Oct-17 20:59N 29°49' W 092°08'0 0.0
2017-Oct-17 20:29N 29°49' W 092°08'0 0.0
2017-Oct-17 19:59N 29°49' W 092°08'0 0.0
2017-Oct-17 19:29N 29°49' W 092°08'0 0.0
2017-Oct-17 18:56N 29°49' W 092°08'0 0.0
2017-Oct-17 18:29N 29°49' W 092°08'0 0.0
2017-Oct-17 17:56N 29°49' W 092°08'0 0.0
2017-Oct-17 17:26N 29°49' W 092°08'0 0.0
2017-Oct-17 16:50N 29°49' W 092°08'0 0.0
2017-Oct-17 16:29N 29°49' W 092°08'0 0.0
2017-Oct-17 15:59N 29°49' W 092°08'0 0.0
2017-Oct-17 15:08N 29°49' W 092°08'0 0.0
2017-Oct-17 14:59N 29°49' W 092°08'0 0.0
2017-Oct-17 14:29N 29°49' W 092°08'0 0.0
2017-Oct-17 13:59N 29°49' W 092°08'0 0.0
2017-Oct-17 13:29N 29°49' W 092°08'0 0.0
2017-Oct-17 12:59N 29°49' W 092°08'0 0.0
2017-Oct-17 12:23N 29°49' W 092°08'0 0.0
2017-Oct-17 11:59N 29°49' W 092°08'0 0.0
2017-Oct-17 11:29N 29°49' W 092°08'0 0.0
2017-Oct-17 10:59N 29°49' W 092°08'0 0.0
2017-Oct-17 10:24N 29°49' W 092°08'0 0.0
2017-Oct-17 10:00N 29°49' W 092°08'0 0.0
2017-Oct-17 09:30N 29°49' W 092°08'0 0.0
2017-Oct-17 09:00N 29°49' W 092°08'0 0.0
2017-Oct-17 08:30N 29°49' W 092°08'0 0.0
2017-Oct-17 08:00N 29°49' W 092°08'0 0.0
2017-Oct-17 07:24N 29°49' W 092°08'0 0.0
2017-Oct-17 07:00N 29°49' W 092°08'0 0.0
2017-Oct-17 06:27N 29°49' W 092°08'0 0.0
2017-Oct-17 06:00N 29°49' W 092°08'0 0.0
2017-Oct-17 05:30N 29°49' W 092°08'0 0.0
2017-Oct-17 05:00N 29°49' W 092°08'0 0.0
2017-Oct-17 04:30N 29°49' W 092°08'0 0.0
2017-Oct-17 04:00N 29°49' W 092°08'0 0.0
2017-Oct-17 03:12N 29°49' W 092°08'0 0.0
2017-Oct-17 02:54N 29°49' W 092°08'0 0.0
2017-Oct-17 02:24N 29°49' W 092°08'0 0.0
2017-Oct-17 02:00N 29°49' W 092°08'0 0.0
2017-Oct-17 01:30N 29°49' W 092°08'0 0.0
2017-Oct-17 00:51N 29°49' W 092°08'0 0.0
2017-Oct-17 00:30N 29°49' W 092°08'0 0.0
2017-Oct-16 23:54N 29°49' W 092°08'0 0.0
2017-Oct-16 22:42N 29°49' W 092°08'0 0.0
2017-Oct-16 22:06N 29°49' W 092°08'0 0.0
2017-Oct-16 20:21N 29°49' W 092°08'0 0.0
2017-Oct-16 20:00N 29°49' W 092°08'1 1.9
2017-Oct-16 19:30N 29°48' W 092°08'3 5.8
2017-Oct-16 19:00N 29°46' W 092°10'5 9.6
2017-Oct-16 18:30N 29°43' W 092°15'5 8.9
2017-Oct-16 17:57N 29°38' W 092°16'2 0.1
2017-Oct-16 01:03N 29°37' W 092°17'0 9.2
2017-Oct-16 01:00N 29°37' W 092°17'4 8.9
2017-Oct-16 00:30N 29°41' W 092°15'5 9.4
2017-Oct-16 00:00N 29°45' W 092°12'4 7.6
2017-Oct-15 23:30N 29°47' W 092°09'2 4.0
2017-Oct-15 23:00N 29°49' W 092°08'0 0.0
2017-Oct-15 22:30N 29°49' W 092°08'0 0.0
2017-Oct-15 22:00N 29°49' W 092°08'0 0.0
2017-Oct-15 21:30N 29°49' W 092°08'0 0.0
2017-Oct-15 21:00N 29°49' W 092°08'0 0.0
2017-Oct-15 20:30N 29°49' W 092°08'0 0.0
2017-Oct-15 20:00N 29°49' W 092°08'0 0.0
2017-Oct-15 19:30N 29°49' W 092°08'0 0.0
2017-Oct-15 19:00N 29°49' W 092°08'0 0.0
2017-Oct-15 18:30N 29°49' W 092°08'0 0.0
2017-Oct-15 18:00N 29°49' W 092°08'0 0.0
2017-Oct-15 17:30N 29°49' W 092°08'0 0.0
2017-Oct-15 17:00N 29°49' W 092°08'0 0.0
2017-Oct-15 16:28N 29°49' W 092°08'0 0.0
2017-Oct-15 16:00N 29°49' W 092°08'0 0.0
2017-Oct-15 15:30N 29°49' W 092°08'0 0.0
2017-Oct-15 15:00N 29°49' W 092°08'0 0.0
2017-Oct-15 14:00N 29°49' W 092°08'0 0.0
2017-Oct-15 13:30N 29°49' W 092°08'0 0.0
2017-Oct-15 13:00N 29°49' W 092°08'0 0.0
2017-Oct-15 12:30N 29°49' W 092°08'0 0.0
2017-Oct-15 12:00N 29°49' W 092°08'0 0.0
2017-Oct-15 11:30N 29°49' W 092°08'0 0.0
2017-Oct-15 11:00N 29°49' W 092°08'0 0.0
2017-Oct-15 10:30N 29°49' W 092°08'0 0.0
2017-Oct-15 10:00N 29°49' W 092°08'0 0.0
2017-Oct-15 09:30N 29°49' W 092°08'0 0.0
2017-Oct-15 09:00N 29°49' W 092°08'0 0.0
2017-Oct-15 08:30N 29°49' W 092°08'0 0.0
2017-Oct-15 08:00N 29°49' W 092°08'0 0.0
2017-Oct-15 07:30N 29°49' W 092°08'0 0.0
2017-Oct-15 07:00N 29°49' W 092°08'0 0.0
2017-Oct-15 06:30N 29°49' W 092°08'0 0.0
2017-Oct-15 06:00N 29°49' W 092°08'0 0.0
2017-Oct-15 05:30N 29°49' W 092°08'0 0.0
2017-Oct-15 05:00N 29°49' W 092°08'0 0.0
2017-Oct-15 04:29N 29°49' W 092°08'0 0.0
2017-Oct-15 03:29N 29°49' W 092°08'0 0.0
2017-Oct-15 02:55N 29°49' W 092°08'0 0.0
2017-Oct-15 02:29N 29°49' W 092°08'0 0.0
2017-Oct-15 02:00N 29°49' W 092°08'0 0.0
2017-Oct-15 01:30N 29°49' W 092°08'0 0.0
2017-Oct-15 01:00N 29°49' W 092°08'0 0.0
2017-Oct-15 00:30N 29°49' W 092°08'0 0.0
2017-Oct-15 00:00N 29°49' W 092°08'0 0.0
2017-Oct-14 23:30N 29°49' W 092°08'0 0.0
2017-Oct-14 22:59N 29°49' W 092°08'0 0.0
2017-Oct-14 22:30N 29°49' W 092°08'0 0.0
2017-Oct-14 22:00N 29°49' W 092°08'0 0.0
2017-Oct-14 21:30N 29°49' W 092°08'0 0.0
2017-Oct-14 20:58N 29°49' W 092°08'0 0.0
2017-Oct-14 20:29N 29°49' W 092°08'0 0.0
2017-Oct-14 19:54N 29°49' W 092°08'0 0.0
2017-Oct-14 19:30N 29°49' W 092°08'0 0.0
2017-Oct-14 18:59N 29°49' W 092°08'0 0.0
2017-Oct-14 18:30N 29°49' W 092°08'0 0.0
2017-Oct-14 18:00N 29°49' W 092°08'0 0.0
2017-Oct-14 17:30N 29°49' W 092°08'0 0.0
2017-Oct-14 16:42N 29°49' W 092°08'0 0.0
2017-Oct-14 16:16N 29°49' W 092°08'0 0.0
2017-Oct-14 16:00N 29°49' W 092°08'0 0.0
2017-Oct-14 15:30N 29°49' W 092°08'0 0.0
2017-Oct-14 15:00N 29°49' W 092°08'0 0.0
2017-Oct-14 14:30N 29°49' W 092°08'0 0.0
2017-Oct-14 13:58N 29°49' W 092°08'0 0.2
2017-Oct-14 13:30N 29°49' W 092°08'0 0.0
2017-Oct-14 13:00N 29°49' W 092°08'0 0.0
2017-Oct-14 12:30N 29°49' W 092°08'0 0.0
2017-Oct-14 12:00N 29°49' W 092°08'0 0.0
2017-Oct-14 11:30N 29°49' W 092°08'0 0.0
2017-Oct-14 11:00N 29°49' W 092°08'0 0.0
2017-Oct-14 10:30N 29°49' W 092°08'0 0.0
2017-Oct-14 10:00N 29°49' W 092°08'0 0.0
2017-Oct-14 09:30N 29°49' W 092°08'0 0.0
2017-Oct-14 09:00N 29°49' W 092°08'0 0.0
2017-Oct-14 08:30N 29°49' W 092°08'0 0.0
2017-Oct-14 08:00N 29°49' W 092°08'0 0.0
2017-Oct-14 07:30N 29°49' W 092°08'0 0.0
2017-Oct-14 07:00N 29°49' W 092°08'0 0.0
2017-Oct-14 06:30N 29°49' W 092°08'0 0.0
2017-Oct-14 06:00N 29°49' W 092°08'0 0.0
2017-Oct-14 05:30N 29°49' W 092°08'0 0.0
2017-Oct-14 05:00N 29°49' W 092°08'0 0.0
2017-Oct-14 04:30N 29°49' W 092°08'0 0.0
2017-Oct-14 04:00N 29°49' W 092°08'0 0.0
2017-Oct-14 03:30N 29°49' W 092°08'0 0.0
2017-Oct-14 03:00N 29°49' W 092°08'0 0.0
2017-Oct-14 02:30N 29°49' W 092°08'0 0.0
2017-Oct-14 02:00N 29°49' W 092°08'0 0.0
2017-Oct-14 01:30N 29°49' W 092°08'0 0.0
2017-Oct-14 01:00N 29°49' W 092°08'0 0.0
2017-Oct-14 00:30N 29°49' W 092°08'0 0.0
2017-Oct-14 00:00N 29°49' W 092°08'0 0.0
2017-Oct-13 23:30N 29°49' W 092°08'2 3.5
2017-Oct-13 23:00N 29°48' W 092°08'3 6.6
2017-Oct-13 22:30N 29°46' W 092°12'4 8.7
2017-Oct-13 22:00N 29°42' W 092°15'10 0.3
2017-Oct-12 09:33N 29°33' W 092°18'1 4.6
2017-Oct-12 09:21N 29°34' W 092°18'3 9.5
2017-Oct-12 09:00N 29°37' W 092°17'5 9.9
2017-Oct-12 08:30N 29°42' W 092°15'5 9.8
2017-Oct-12 08:01N 29°46' W 092°12'3 6.6
2017-Oct-12 07:30N 29°48' W 092°08'2 3.3
2017-Oct-12 07:00N 29°49' W 092°08'0 0.0
2017-Oct-12 06:31N 29°49' W 092°08'0 0.0
2017-Oct-12 06:00N 29°49' W 092°08'0 0.0
2017-Oct-12 05:30N 29°49' W 092°08'0 0.0
2017-Oct-12 05:01N 29°49' W 092°08'0 0.0
2017-Oct-12 04:31N 29°49' W 092°08'0 0.0
2017-Oct-12 04:01N 29°49' W 092°08'2 4.7
2017-Oct-12 03:30N 29°47' W 092°09'4 8.4
2017-Oct-12 03:01N 29°45' W 092°13'4 8.7
2017-Oct-12 02:30N 29°41' W 092°15'4 8.7
2017-Oct-12 02:01N 29°37' W 092°17'2 0.0
2017-Oct-10 01:09N 29°39' W 092°16'1 9.0
2017-Oct-10 01:00N 29°40' W 092°15'4 7.7
2017-Oct-10 00:30N 29°44' W 092°15'5 9.0
2017-Oct-10 00:00N 29°46' W 092°10'2 4.6
2017-Oct-09 23:30N 29°48' W 092°08'2 3.0
2017-Oct-09 23:01N 29°49' W 092°08'0 0.0
2017-Oct-09 22:30N 29°49' W 092°08'0 0.0
2017-Oct-09 22:00N 29°49' W 092°08'0 0.0
2017-Oct-09 21:30N 29°49' W 092°08'0 0.0
2017-Oct-09 21:00N 29°49' W 092°08'0 0.0
2017-Oct-09 20:30N 29°49' W 092°08'0 0.0
2017-Oct-09 19:59N 29°49' W 092°08'0 0.0
2017-Oct-09 19:29N 29°49' W 092°08'0 0.0
2017-Oct-09 18:59N 29°49' W 092°08'0 0.0
2017-Oct-09 18:29N 29°49' W 092°08'0 0.0
2017-Oct-09 17:59N 29°49' W 092°08'0 0.0
2017-Oct-09 17:26N 29°49' W 092°08'0 0.0
2017-Oct-09 16:59N 29°49' W 092°08'0 0.0
2017-Oct-09 16:29N 29°49' W 092°08'0 0.0
2017-Oct-09 15:59N 29°49' W 092°08'0 0.0
2017-Oct-09 15:29N 29°49' W 092°08'0 0.0
2017-Oct-09 14:56N 29°49' W 092°08'0 0.0
2017-Oct-09 14:29N 29°49' W 092°08'0 0.0
2017-Oct-09 13:59N 29°49' W 092°08'0 0.0
2017-Oct-09 13:29N 29°49' W 092°08'0 0.0
2017-Oct-09 12:59N 29°49' W 092°08'0 0.0
2017-Oct-09 12:29N 29°49' W 092°08'0 0.0
2017-Oct-09 11:59N 29°49' W 092°08'0 0.0
2017-Oct-09 11:29N 29°49' W 092°08'0 0.0
2017-Oct-09 10:59N 29°49' W 092°08'0 0.0
2017-Oct-09 10:29N 29°49' W 092°08'0 0.0
2017-Oct-09 09:59N 29°49' W 092°08'0 0.0
2017-Oct-09 09:29N 29°49' W 092°08'0 0.0
2017-Oct-09 08:59N 29°49' W 092°08'0 0.0
2017-Oct-09 08:29N 29°49' W 092°08'0 0.0
2017-Oct-09 07:59N 29°49' W 092°08'0 0.0
2017-Oct-09 07:29N 29°49' W 092°08'0 0.0
2017-Oct-09 06:59N 29°49' W 092°08'0 0.0
2017-Oct-09 06:29N 29°49' W 092°08'0 0.0
2017-Oct-09 05:59N 29°49' W 092°08'0 0.0
2017-Oct-09 05:29N 29°49' W 092°08'0 0.0
2017-Oct-09 04:59N 29°49' W 092°08'0 0.0
2017-Oct-09 04:29N 29°49' W 092°08'0 0.0
2017-Oct-09 03:59N 29°49' W 092°08'0 0.0
2017-Oct-09 03:29N 29°49' W 092°08'0 0.0
2017-Oct-09 02:59N 29°49' W 092°08'0 0.0
2017-Oct-09 02:29N 29°49' W 092°08'0 0.0
2017-Oct-09 01:59N 29°49' W 092°08'0 0.0
2017-Oct-09 01:30N 29°49' W 092°08'0 0.0
2017-Oct-09 01:00N 29°49' W 092°08'0 0.0
2017-Oct-09 00:30N 29°49' W 092°08'0 0.0
2017-Oct-09 00:00N 29°49' W 092°08'0 0.0
2017-Oct-08 23:30N 29°49' W 092°08'0 0.0
2017-Oct-08 22:57N 29°49' W 092°08'0 0.0
2017-Oct-08 22:30N 29°49' W 092°08'0 0.0
2017-Oct-08 22:00N 29°49' W 092°08'0 0.0
2017-Oct-08 21:30N 29°49' W 092°08'0 0.0
2017-Oct-08 21:00N 29°49' W 092°08'0 0.0
2017-Oct-08 20:30N 29°49' W 092°08'0 0.0
2017-Oct-08 20:00N 29°49' W 092°08'0 0.0
2017-Oct-08 19:30N 29°49' W 092°08'0 0.0
2017-Oct-08 19:00N 29°49' W 092°08'0 0.0
2017-Oct-08 18:30N 29°49' W 092°08'0 0.0
2017-Oct-08 18:00N 29°49' W 092°08'0 0.0
2017-Oct-08 17:30N 29°49' W 092°08'0 0.0
2017-Oct-08 17:00N 29°49' W 092°08'0 0.0
2017-Oct-08 16:30N 29°49' W 092°08'0 0.0
2017-Oct-08 16:00N 29°49' W 092°08'0 0.0
2017-Oct-08 15:30N 29°49' W 092°08'0 0.0
2017-Oct-08 15:00N 29°49' W 092°08'0 0.0
2017-Oct-08 14:30N 29°49' W 092°08'0 0.0
2017-Oct-08 14:00N 29°49' W 092°08'0 0.0
2017-Oct-08 13:30N 29°49' W 092°08'0 0.0
2017-Oct-08 13:00N 29°49' W 092°08'0 0.0
2017-Oct-08 12:30N 29°49' W 092°08'0 0.0
2017-Oct-08 12:00N 29°49' W 092°08'0 0.0
2017-Oct-08 11:30N 29°49' W 092°08'0 0.0
2017-Oct-08 11:00N 29°49' W 092°08'0 0.0
2017-Oct-08 10:30N 29°49' W 092°08'0 0.0
2017-Oct-08 10:00N 29°49' W 092°08'0 0.0
2017-Oct-08 09:30N 29°49' W 092°08'0 0.0
2017-Oct-08 09:00N 29°49' W 092°08'0 0.0
2017-Oct-08 08:30N 29°49' W 092°08'0 0.0
2017-Oct-08 08:00N 29°49' W 092°08'0 0.0
2017-Oct-08 07:30N 29°49' W 092°08'0 0.0
2017-Oct-08 07:00N 29°49' W 092°08'0 0.0
2017-Oct-08 06:30N 29°49' W 092°08'0 0.0
2017-Oct-08 06:00N 29°49' W 092°08'0 0.0
2017-Oct-08 05:30N 29°49' W 092°08'  

Dump ship's entire track history